createdAt,value
2018-06-03T00:01:40.473Z,12.10
2018-06-03T00:04:13.721Z,11.30
2018-06-03T00:06:46.998Z,11.57
2018-06-03T00:09:19.696Z,12.87
2018-06-03T00:11:52.699Z,12.30
2018-06-03T00:14:25.267Z,14.43
2018-06-03T00:16:57.825Z,13.47
2018-06-03T00:19:31.046Z,15.20
2018-06-03T00:22:28.252Z,18.10
2018-06-03T00:25:00.705Z,18.60
2018-06-03T00:27:33.468Z,18.03
2018-06-03T00:30:06.669Z,18.73
2018-06-03T00:32:39.153Z,19.20
2018-06-03T00:35:12.917Z,16.67
2018-06-03T00:37:45.597Z,18.17
2018-06-03T00:40:18.061Z,18.00
2018-06-03T00:42:51.270Z,18.83
2018-06-03T00:45:28.955Z,19.30
2018-06-03T00:48:02.641Z,18.43
2018-06-03T00:50:36.025Z,20.03
2018-06-03T00:53:09.194Z,24.12
2018-06-03T00:55:42.399Z,18.47
2018-06-03T00:58:16.153Z,24.58
2018-06-03T01:00:49.057Z,20.60
2018-06-03T01:03:23.239Z,22.70
2018-06-03T01:05:56.442Z,24.47
2018-06-03T01:08:29.275Z,22.43
2018-06-03T01:11:01.978Z,22.30
2018-06-03T01:13:34.725Z,23.03
2018-06-03T01:16:07.348Z,24.50
2018-06-03T01:18:39.880Z,25.40
2018-06-03T01:21:13.638Z,26.20
2018-06-03T01:23:46.565Z,27.13
2018-06-03T01:26:19.280Z,27.67
2018-06-03T01:28:53.322Z,27.77
2018-06-03T01:31:26.378Z,29.07
2018-06-03T01:33:58.934Z,28.47
2018-06-03T01:36:31.869Z,25.40
2018-06-03T01:39:06.512Z,26.53
2018-06-03T01:41:39.084Z,24.07
2018-06-03T01:44:12.500Z,33.37
2018-06-03T01:46:45.042Z,28.43
2018-06-03T01:49:17.809Z,24.83
2018-06-03T01:51:51.743Z,24.73
2018-06-03T01:54:24.432Z,29.00
2018-06-03T01:56:57.589Z,27.40
2018-06-03T01:59:30.410Z,25.10
2018-06-03T02:02:02.866Z,26.73
2018-06-03T02:04:35.321Z,28.00
2018-06-03T02:07:08.401Z,25.00
2018-06-03T02:09:41.074Z,24.30
2018-06-03T02:12:13.472Z,32.60
2018-06-03T02:14:46.219Z,30.07
2018-06-03T02:17:18.876Z,27.57
2018-06-03T02:19:51.639Z,27.53
2018-06-03T02:22:24.617Z,37.38
2018-06-03T02:24:57.525Z,31.73
2018-06-03T02:27:30.165Z,26.77
2018-06-03T02:30:06.005Z,26.03
2018-06-03T02:32:38.617Z,27.80
2018-06-03T02:35:11.210Z,26.20
2018-06-03T02:37:44.185Z,31.43
2018-06-03T02:40:16.989Z,35.05
2018-06-03T02:42:49.799Z,27.27
2018-06-03T02:45:22.698Z,24.00
2018-06-03T02:47:56.114Z,26.80
2018-06-03T02:50:28.751Z,25.57
2018-06-03T02:53:03.332Z,24.07
2018-06-03T02:55:35.863Z,28.67
2018-06-03T02:58:08.421Z,22.83
2018-06-03T03:00:42.290Z,26.77
2018-06-03T03:03:14.833Z,31.10
2018-06-03T03:05:47.386Z,31.53
2018-06-03T03:08:20.162Z,30.80
2018-06-03T03:10:52.745Z,29.13
2018-06-03T03:13:29.177Z,50.17
2018-06-03T03:16:02.702Z,34.53
2018-06-03T03:18:35.440Z,34.23
2018-06-03T03:21:08.297Z,34.83
2018-06-03T03:23:41.465Z,36.47
2018-06-03T03:26:14.246Z,34.47
2018-06-03T03:28:47.318Z,39.22
2018-06-03T03:31:20.259Z,28.13
2018-06-03T03:33:52.681Z,43.13
2018-06-03T03:36:25.981Z,33.87
2018-06-03T03:39:00.908Z,35.33
2018-06-03T03:41:33.316Z,35.53
2018-06-03T03:44:05.989Z,32.73
2018-06-03T03:46:38.875Z,32.60
2018-06-03T03:49:11.429Z,31.70
2018-06-03T03:51:43.757Z,25.07
2018-06-03T03:54:16.919Z,24.87
2018-06-03T03:56:49.375Z,30.17
2018-06-03T03:59:22.046Z,42.13
2018-06-03T04:01:54.701Z,31.90
2018-06-03T04:04:27.364Z,34.88
2018-06-03T04:07:00.446Z,27.00
2018-06-03T04:09:34.528Z,35.70
2018-06-03T04:12:07.124Z,32.47
2018-06-03T04:14:39.701Z,30.43
2018-06-03T04:17:12.536Z,29.93
2018-06-03T04:19:45.868Z,34.80
2018-06-03T04:22:18.407Z,39.30
2018-06-03T04:25:02.031Z,32.97
2018-06-03T04:27:34.993Z,35.97
2018-06-03T04:30:08.534Z,39.30
2018-06-03T04:32:42.425Z,40.47
2018-06-03T04:35:15.625Z,46.50
2018-06-03T04:37:48.487Z,49.83
2018-06-03T04:40:21.037Z,41.03
2018-06-03T04:42:53.667Z,40.57
2018-06-03T04:45:26.340Z,36.73
2018-06-03T04:47:58.728Z,39.30
2018-06-03T04:50:31.243Z,37.87
2018-06-03T04:53:06.153Z,38.23
2018-06-03T04:55:39.236Z,39.07
2018-06-03T04:58:12.373Z,36.17
2018-06-03T05:00:45.133Z,33.93
2018-06-03T05:03:17.552Z,35.40
2018-06-03T05:05:50.152Z,36.87
2018-06-03T05:08:22.898Z,37.37
2018-06-03T05:10:55.492Z,36.77
2018-06-03T05:13:28.069Z,31.40
2018-06-03T05:16:02.093Z,32.03
2018-06-03T05:18:34.599Z,31.90
2018-06-03T05:21:07.295Z,34.10
2018-06-03T05:23:40.469Z,35.60
2018-06-03T05:26:13.211Z,32.37
2018-06-03T05:28:45.892Z,37.27
2018-06-03T05:31:19.631Z,34.93
2018-06-03T05:33:52.152Z,38.08
2018-06-03T05:36:24.932Z,29.90
2018-06-03T05:38:58.096Z,27.53
2018-06-03T05:41:30.731Z,31.13
2018-06-03T05:44:03.244Z,27.63
2018-06-03T05:46:36.204Z,32.07
2018-06-03T05:49:08.737Z,31.87
2018-06-03T05:51:41.632Z,34.77
2018-06-03T05:54:14.360Z,35.23
2018-06-03T05:56:47.317Z,35.80
2018-06-03T05:59:20.136Z,36.87
2018-06-03T06:01:52.749Z,37.83
2018-06-03T06:04:26.075Z,38.23
2018-06-03T06:06:58.502Z,38.50
2018-06-03T06:09:30.829Z,38.17
2018-06-03T06:12:03.736Z,34.27
2018-06-03T06:14:36.356Z,40.63
2018-06-03T06:17:08.962Z,42.87
2018-06-03T06:19:41.957Z,41.80
2018-06-03T06:22:14.987Z,38.73
2018-06-03T06:24:48.176Z,37.73
2018-06-03T06:27:22.906Z,38.67
2018-06-03T06:29:55.654Z,36.43
2018-06-03T06:32:28.810Z,33.63
2018-06-03T06:35:01.639Z,33.23
2018-06-03T06:37:34.133Z,34.77
2018-06-03T06:40:06.591Z,34.10
2018-06-03T06:42:39.540Z,38.42
2018-06-03T06:45:15.232Z,31.07
2018-06-03T06:47:48.478Z,29.33
2018-06-03T06:50:22.008Z,29.93
2018-06-03T06:52:55.223Z,27.47
2018-06-03T06:55:28.017Z,23.37
2018-06-03T06:58:00.949Z,17.93
2018-06-03T07:00:33.527Z,19.20
2018-06-03T07:03:06.089Z,21.17
2018-06-03T07:05:38.934Z,29.40
2018-06-03T07:08:13.100Z,33.67
2018-06-03T07:10:45.716Z,33.50
2018-06-03T07:13:18.881Z,31.77
2018-06-03T07:15:51.485Z,32.17
2018-06-03T07:18:24.402Z,30.27
2018-06-03T07:20:57.189Z,30.70
2018-06-03T07:23:30.257Z,32.23
2018-06-03T07:26:02.814Z,30.20
2018-06-03T07:28:36.624Z,32.97
2018-06-03T07:31:09.311Z,28.87
2018-06-03T07:33:41.778Z,29.73
2018-06-03T07:36:14.501Z,32.47
2018-06-03T07:38:47.435Z,33.95
2018-06-03T07:41:20.526Z,32.03
2018-06-03T07:43:54.021Z,34.45
2018-06-03T07:46:27.368Z,37.63
2018-06-03T07:48:59.933Z,31.52
2018-06-03T07:51:32.919Z,30.93
2018-06-03T07:54:05.611Z,30.60
2018-06-03T07:56:38.234Z,29.80
2018-06-03T07:59:10.992Z,29.13
2018-06-03T08:01:43.609Z,29.37
2018-06-03T08:04:16.179Z,27.93
2018-06-03T08:06:49.116Z,29.97
2018-06-03T08:09:23.072Z,33.10
2018-06-03T08:11:55.947Z,32.70
2018-06-03T08:14:29.142Z,31.40
2018-06-03T08:17:01.726Z,28.90
2018-06-03T08:19:34.298Z,28.93
2018-06-03T08:22:07.064Z,30.10
2018-06-03T08:24:39.689Z,31.07
2018-06-03T08:27:12.340Z,30.63
2018-06-03T08:29:45.287Z,27.73
2018-06-03T08:32:18.967Z,25.10
2018-06-03T08:34:51.853Z,26.17
2018-06-03T08:37:25.666Z,30.17
2018-06-03T08:39:58.645Z,27.70
2018-06-03T08:42:32.791Z,30.77
2018-06-03T08:45:07.049Z,31.67
2018-06-03T08:47:39.665Z,34.33
2018-06-03T08:50:12.220Z,32.97
2018-06-03T08:52:45.209Z,33.23
2018-06-03T08:55:17.877Z,33.03
2018-06-03T08:57:50.729Z,33.13
2018-06-03T09:00:25.435Z,33.00
2018-06-03T09:02:58.130Z,30.50
2018-06-03T09:05:31.434Z,28.33
2018-06-03T09:08:04.642Z,120.70
2018-06-03T09:10:37.849Z,29.67
2018-06-03T09:13:10.501Z,26.77
2018-06-03T09:15:43.655Z,27.17
2018-06-03T09:18:17.112Z,25.23
2018-06-03T09:20:49.741Z,29.65
2018-06-03T09:23:23.936Z,27.23
2018-06-03T09:25:56.737Z,30.43
2018-06-03T09:28:30.062Z,27.70
2018-06-03T09:31:05.913Z,29.97
2018-06-03T09:33:38.588Z,27.70
2018-06-03T09:36:11.092Z,30.53
2018-06-03T09:38:44.047Z,34.95
2018-06-03T09:41:16.558Z,31.80
2018-06-03T09:43:50.963Z,29.63
2018-06-03T09:46:25.322Z,33.83
2018-06-03T09:48:58.154Z,31.80
2018-06-03T09:51:31.903Z,33.80
2018-06-03T09:54:04.859Z,35.20
2018-06-03T09:56:37.601Z,33.43
2018-06-03T09:59:10.160Z,31.67
2018-06-03T10:01:42.880Z,31.90
2018-06-03T10:04:15.521Z,31.80
2018-06-03T10:06:48.001Z,32.73
2018-06-03T10:09:22.304Z,33.33
2018-06-03T10:11:55.290Z,34.43
2018-06-03T10:14:30.963Z,34.73
2018-06-03T10:17:04.400Z,35.42
2018-06-03T10:19:36.934Z,31.93
2018-06-03T10:22:09.438Z,34.10
2018-06-03T10:24:42.257Z,32.00
2018-06-03T10:27:14.808Z,29.97
2018-06-03T10:29:47.673Z,34.07
2018-06-03T10:32:27.224Z,30.70
2018-06-03T10:35:00.152Z,32.30
2018-06-03T10:37:33.473Z,30.60
2018-06-03T10:40:08.237Z,32.90
2018-06-03T10:42:41.020Z,33.83
2018-06-03T10:45:15.153Z,35.60
2018-06-03T10:47:48.351Z,34.17
2018-06-03T10:50:22.061Z,35.93
2018-06-03T10:52:54.888Z,36.97
2018-06-03T10:55:29.645Z,39.40
2018-06-03T10:58:02.316Z,33.27
2018-06-03T11:00:34.903Z,35.03
2018-06-03T11:03:08.009Z,34.70
2018-06-03T11:05:40.588Z,35.70
2018-06-03T11:08:13.000Z,35.07
2018-06-03T11:10:45.841Z,35.20
2018-06-03T11:13:18.398Z,39.10
2018-06-03T11:15:51.469Z,35.27
2018-06-03T11:18:32.822Z,36.00
2018-06-03T11:21:05.647Z,31.23
2018-06-03T11:23:38.065Z,31.40
2018-06-03T11:26:10.929Z,33.40
2018-06-03T11:28:43.477Z,32.20
2018-06-03T11:31:16.110Z,34.65
2018-06-03T11:33:50.021Z,30.60
2018-06-03T11:36:23.949Z,32.03
2018-06-03T11:38:56.890Z,33.10
2018-06-03T11:41:32.306Z,36.88
2018-06-03T11:44:05.874Z,30.00
2018-06-03T11:46:39.559Z,30.03
2018-06-03T11:49:12.430Z,32.17
2018-06-03T11:51:45.118Z,30.13
2018-06-03T11:54:17.810Z,27.50
2018-06-03T11:57:03.012Z,30.40
2018-06-03T11:59:42.993Z,27.13
2018-06-03T12:02:18.674Z,26.40
2018-06-03T12:04:51.897Z,25.43
2018-06-03T12:07:27.959Z,27.57
2018-06-03T12:10:01.625Z,25.63
2018-06-03T12:12:36.018Z,24.83
2018-06-03T12:15:09.297Z,46.63
2018-06-03T12:17:43.364Z,28.98
2018-06-03T12:20:16.710Z,26.33
2018-06-03T12:22:49.701Z,26.13
2018-06-03T12:25:23.619Z,26.40
2018-06-03T12:27:56.819Z,24.53
2018-06-03T12:30:31.855Z,24.87
2018-06-03T12:33:04.513Z,24.30
2018-06-03T12:35:37.195Z,24.70
2018-06-03T12:38:11.058Z,25.07
2018-06-03T12:44:06.367Z,23.43
2018-06-03T12:46:39.449Z,23.07
2018-06-03T12:49:12.362Z,25.50
2018-06-03T12:51:44.925Z,23.73
2018-06-03T12:54:17.874Z,25.60
2018-06-03T12:56:50.565Z,23.37
2018-06-03T12:59:25.680Z,22.30
2018-06-03T13:01:58.651Z,23.50
2018-06-03T13:04:32.854Z,23.70
2018-06-03T13:07:05.544Z,21.83
2018-06-03T13:09:38.052Z,22.87
2018-06-03T13:12:11.605Z,22.40
2018-06-03T13:14:44.187Z,21.80
2018-06-03T13:17:16.953Z,23.87
2018-06-03T13:19:49.956Z,22.37
2018-06-03T13:22:22.353Z,21.83
2018-06-03T13:24:55.393Z,19.33
2018-06-03T13:27:28.996Z,20.80
2018-06-03T13:30:04.498Z,23.13
2018-06-03T13:32:39.197Z,21.97
2018-06-03T13:35:11.989Z,21.13
2018-06-03T13:37:44.437Z,21.35
2018-06-03T13:40:17.199Z,21.57
2018-06-03T13:42:50.738Z,19.07
2018-06-03T13:45:24.708Z,20.50
2018-06-03T13:47:57.445Z,20.50
2018-06-03T13:50:31.149Z,20.07
2018-06-03T13:53:04.051Z,22.83
2018-06-03T13:55:39.577Z,23.43
2018-06-03T13:58:12.085Z,21.40
2018-06-03T14:00:45.435Z,20.83
2018-06-03T14:03:17.984Z,20.20
2018-06-03T14:05:50.605Z,20.83
2018-06-03T14:08:23.722Z,22.03
2018-06-03T14:10:56.577Z,21.35
2018-06-03T14:13:30.055Z,22.40
2018-06-03T14:16:03.074Z,20.43
2018-06-03T14:18:36.922Z,19.73
2018-06-03T14:21:10.038Z,18.87
2018-06-03T14:23:45.171Z,21.43
2018-06-03T14:26:17.982Z,22.33
2018-06-03T14:28:50.508Z,20.50
2018-06-03T14:31:23.451Z,23.37
2018-06-03T14:33:57.043Z,22.00
2018-06-03T14:36:31.607Z,23.37
2018-06-03T14:39:08.314Z,25.87
2018-06-03T14:41:41.472Z,25.10
2018-06-03T14:44:14.117Z,23.53
2018-06-03T14:46:47.388Z,26.90
2018-06-03T14:49:20.251Z,24.20
2018-06-03T14:51:52.874Z,26.40
2018-06-03T14:54:25.834Z,23.80
2018-06-03T14:56:59.097Z,26.30
2018-06-03T14:59:34.807Z,23.00
2018-06-03T15:02:09.477Z,26.33
2018-06-03T15:04:42.426Z,25.43
2018-06-03T15:07:16.217Z,23.20
2018-06-03T15:09:48.973Z,21.97
2018-06-03T15:12:21.522Z,23.83
2018-06-03T15:14:54.469Z,23.53
2018-06-03T15:17:28.229Z,26.00
2018-06-03T15:20:04.704Z,26.23
2018-06-03T15:22:39.926Z,23.63
2018-06-03T15:25:12.509Z,22.67
2018-06-03T15:27:46.029Z,21.63
2018-06-03T15:30:18.514Z,21.40
2018-06-03T15:32:52.282Z,22.23
2018-06-03T15:35:27.966Z,22.97
2018-06-03T15:38:02.005Z,22.77
2018-06-03T15:40:39.060Z,24.10
2018-06-03T15:43:15.823Z,24.37
2018-06-03T15:45:48.582Z,21.53
2018-06-03T15:48:21.245Z,24.00
2018-06-03T15:50:53.840Z,21.67
2018-06-03T15:53:26.912Z,22.97
2018-06-03T15:56:00.130Z,22.13
2018-06-03T15:58:35.813Z,23.43
2018-06-03T16:01:09.510Z,21.37
2018-06-03T16:03:42.758Z,22.17
2018-06-03T16:06:15.225Z,20.87
2018-06-03T16:08:51.972Z,20.57
2018-06-03T16:11:26.072Z,21.73
2018-06-03T16:14:06.873Z,21.07
2018-06-03T16:16:41.509Z,21.37
2018-06-03T16:19:17.885Z,21.13
2018-06-03T16:21:51.235Z,19.53
2018-06-03T16:24:24.098Z,19.93
2018-06-03T16:26:57.009Z,18.63
2018-06-03T16:29:31.835Z,18.57
2018-06-03T16:32:06.353Z,19.37
2018-06-03T16:34:41.747Z,17.70
2018-06-03T16:37:16.997Z,19.00
2018-06-03T16:39:51.490Z,18.37
2018-06-03T16:42:27.012Z,19.50
2018-06-03T16:45:05.837Z,18.10
2018-06-03T16:47:44.578Z,17.17
2018-06-03T16:50:26.014Z,18.23
2018-06-03T16:53:10.209Z,17.47
2018-06-03T16:55:55.992Z,17.87
2018-06-03T16:58:45.503Z,17.27
2018-06-03T17:01:38.611Z,17.87
2018-06-03T17:04:31.885Z,17.03
2018-06-03T17:07:23.799Z,17.40
2018-06-03T17:10:49.782Z,18.47
2018-06-03T17:13:27.861Z,17.73
2018-06-03T17:16:14.056Z,17.80
2018-06-03T17:18:58.902Z,16.20
2018-06-03T17:21:43.685Z,16.77
2018-06-03T17:24:41.377Z,17.83
2018-06-03T17:27:34.312Z,17.67
2018-06-03T17:30:11.003Z,15.93
2018-06-03T17:32:50.906Z,16.57
2018-06-03T17:36:10.210Z,16.80
2018-06-03T17:38:56.343Z,16.03
2018-06-03T17:41:43.239Z,15.63
2018-06-03T17:44:30.400Z,14.63
2018-06-03T17:47:15.491Z,15.17
2018-06-03T17:50:00.535Z,14.77
2018-06-03T17:52:55.849Z,15.07
2018-06-03T17:55:40.279Z,12.70
2018-06-03T17:58:46.002Z,13.43
2018-06-03T18:01:53.317Z,12.20
2018-06-03T18:05:14.884Z,12.47
2018-06-03T18:08:06.696Z,12.30
2018-06-03T18:10:55.550Z,13.30
2018-06-03T18:13:43.242Z,12.30
2018-06-03T18:16:34.822Z,12.93
2018-06-03T18:19:11.818Z,12.77
2018-06-03T18:21:45.303Z,13.57
2018-06-03T18:24:18.935Z,12.53
2018-06-03T18:26:52.857Z,13.77
2018-06-03T18:29:29.503Z,13.10
2018-06-03T18:32:13.591Z,13.43
2018-06-03T18:34:48.199Z,13.07
2018-06-03T18:37:24.310Z,12.80
2018-06-03T18:39:57.879Z,13.77
2018-06-03T18:42:38.353Z,12.00
2018-06-03T18:45:13.687Z,12.77
2018-06-03T18:47:46.934Z,13.55
2018-06-03T18:50:19.951Z,12.10
2018-06-03T18:52:52.612Z,11.10
2018-06-03T18:55:25.934Z,12.83
2018-06-03T18:57:59.481Z,11.20
2018-06-03T19:00:37.124Z,12.37
2018-06-03T19:03:10.385Z,12.50
2018-06-03T19:05:44.000Z,11.67
2018-06-03T19:08:17.657Z,11.70
2018-06-03T19:10:50.600Z,12.00
2018-06-03T19:13:23.916Z,10.33
2018-06-03T19:15:56.598Z,11.57
2018-06-03T19:18:29.854Z,12.23
2018-06-03T19:21:03.007Z,11.67
2018-06-03T19:23:38.309Z,23.27
2018-06-03T19:26:12.383Z,12.73
2018-06-03T19:28:49.321Z,12.57
2018-06-03T19:31:21.874Z,11.93
2018-06-03T19:33:54.549Z,13.30
2018-06-03T19:36:28.727Z,13.80
2018-06-03T19:39:01.390Z,13.30
2018-06-03T19:41:37.136Z,12.13
2018-06-03T19:44:11.064Z,12.60
2018-06-03T19:46:46.948Z,12.33
2018-06-03T19:49:20.464Z,12.03
2018-06-03T19:51:53.696Z,13.73
2018-06-03T19:54:27.088Z,12.80
2018-06-03T19:57:01.158Z,12.67
2018-06-03T19:59:34.678Z,13.97
2018-06-03T20:02:08.214Z,14.10
2018-06-03T20:04:43.836Z,14.80
2018-06-03T20:07:18.949Z,13.07
2018-06-03T20:09:53.675Z,13.63
2018-06-03T20:12:27.017Z,42.17
2018-06-03T20:14:59.638Z,18.30
2018-06-03T20:17:34.096Z,14.57
2018-06-03T20:20:07.958Z,16.00
2018-06-03T20:22:43.428Z,14.90
2018-06-03T20:25:17.398Z,13.30
2018-06-03T20:27:51.082Z,11.97
2018-06-03T20:30:23.472Z,14.10
2018-06-03T20:32:56.413Z,13.43
2018-06-03T20:35:29.582Z,13.93
2018-06-03T20:38:02.439Z,15.27
2018-06-03T20:40:36.193Z,13.73
2018-06-03T20:43:10.106Z,13.20
2018-06-03T20:45:45.791Z,14.87
2018-06-03T20:48:18.488Z,16.17
2018-06-03T20:50:51.908Z,16.67
2018-06-03T20:53:24.416Z,14.50
2018-06-03T20:55:56.958Z,15.40
2018-06-03T20:58:29.756Z,15.57
2018-06-03T21:01:02.873Z,13.63
2018-06-03T21:03:36.349Z,14.03
2018-06-03T21:06:10.053Z,16.57
2018-06-03T21:08:44.705Z,14.77
2018-06-03T21:11:17.398Z,15.53
2018-06-03T21:13:52.289Z,14.60
2018-06-03T21:16:25.024Z,12.97
2018-06-03T21:18:57.829Z,15.73
2018-06-03T21:21:31.189Z,20.10
2018-06-03T21:24:03.992Z,16.30
2018-06-03T21:26:36.892Z,16.93
2018-06-03T21:29:11.652Z,18.20
2018-06-03T21:31:48.214Z,17.77
2018-06-03T21:34:23.879Z,14.57
2018-06-03T21:36:56.927Z,20.08
2018-06-03T21:39:29.955Z,17.13
2018-06-03T21:45:52.336Z,20.05
2018-06-03T21:48:26.619Z,17.73
2018-06-03T21:50:59.961Z,13.97
2018-06-03T21:53:32.519Z,14.87
2018-06-03T21:56:05.221Z,16.73
2018-06-03T21:58:38.639Z,19.00
2018-06-03T22:01:12.192Z,16.30
2018-06-03T22:03:48.247Z,17.33
2018-06-03T22:06:21.441Z,22.10
2018-06-03T22:08:55.375Z,16.57
2018-06-03T22:11:29.101Z,18.63
2018-06-03T22:14:02.934Z,18.57
2018-06-03T22:16:36.635Z,16.43
2018-06-03T22:19:09.000Z,20.40
2018-06-03T22:21:44.974Z,16.87
2018-06-03T22:24:23.133Z,17.87
2018-06-03T22:26:56.822Z,17.03
2018-06-03T22:29:29.689Z,24.52
2018-06-03T22:32:02.401Z,21.00
2018-06-03T22:34:35.009Z,19.20
2018-06-03T22:37:08.250Z,25.90
2018-06-03T22:39:45.558Z,19.50
2018-06-03T22:42:20.267Z,23.00
2018-06-03T22:44:54.170Z,24.00
2018-06-03T22:47:27.014Z,18.47
2018-06-03T22:50:01.050Z,18.63
2018-06-03T22:52:34.529Z,18.10
2018-06-03T22:55:08.397Z,16.90
2018-06-03T22:57:52.085Z,14.67
2018-06-03T23:00:32.079Z,18.17
2018-06-03T23:03:10.408Z,21.65
2018-06-03T23:05:44.814Z,20.23
2018-06-03T23:08:18.040Z,20.83
2018-06-03T23:10:51.030Z,22.60
2018-06-03T23:13:23.611Z,25.50
2018-06-03T23:15:56.798Z,27.25
2018-06-03T23:18:29.565Z,18.40
2018-06-03T23:21:02.178Z,25.20
2018-06-03T23:23:35.111Z,18.90
2018-06-03T23:26:07.983Z,23.53
2018-06-03T23:28:41.691Z,24.77
2018-06-03T23:31:14.919Z,24.40
2018-06-03T23:33:48.323Z,21.97
2018-06-03T23:36:20.809Z,18.20
2018-06-03T23:38:54.112Z,20.07
2018-06-03T23:41:26.909Z,22.50
2018-06-03T23:43:59.524Z,21.97
2018-06-03T23:46:32.417Z,28.03
2018-06-03T23:49:05.607Z,23.70
2018-06-03T23:51:38.298Z,31.60
2018-06-03T23:54:11.484Z,27.90
2018-06-03T23:56:44.851Z,26.20
2018-06-03T23:59:18.921Z,29.30
